sensor_id;sensor_type;location;lat;lon;timestamp;P1;durP1;ratioP1;P2;durP2;ratioP2
12758;SDS011;20944;47.048;15.390;2023-04-21T00:01:11;4.70;;;1.10;;
12758;SDS011;20944;47.048;15.390;2023-04-21T00:03:40;1.77;;;1.00;;
12758;SDS011;20944;47.048;15.390;2023-04-21T00:06:09;2.13;;;1.10;;
12758;SDS011;20944;47.048;15.390;2023-04-21T00:08:38;4.70;;;1.23;;
12758;SDS011;20944;47.048;15.390;2023-04-21T00:11:07;1.17;;;1.03;;
12758;SDS011;20944;47.048;15.390;2023-04-21T00:13:36;1.77;;;1.27;;
12758;SDS011;20944;47.048;15.390;2023-04-21T00:16:04;2.03;;;1.27;;
12758;SDS011;20944;47.048;15.390;2023-04-21T00:18:35;1.43;;;0.90;;
12758;SDS011;20944;47.048;15.390;2023-04-21T00:21:03;1.80;;;1.20;;
12758;SDS011;20944;47.048;15.390;2023-04-21T00:23:32;4.47;;;1.40;;
12758;SDS011;20944;47.048;15.390;2023-04-21T00:26:00;1.40;;;1.10;;
12758;SDS011;20944;47.048;15.390;2023-04-21T00:28:29;3.60;;;1.50;;
12758;SDS011;20944;47.048;15.390;2023-04-21T00:30:57;1.43;;;1.33;;
12758;SDS011;20944;47.048;15.390;2023-04-21T00:33:26;1.87;;;1.40;;
12758;SDS011;20944;47.048;15.390;2023-04-21T00:35:56;1.93;;;1.80;;
12758;SDS011;20944;47.048;15.390;2023-04-21T00:38:25;1.57;;;1.10;;
12758;SDS011;20944;47.048;15.390;2023-04-21T00:40:53;2.43;;;1.50;;
12758;SDS011;20944;47.048;15.390;2023-04-21T00:43:22;2.33;;;1.43;;
12758;SDS011;20944;47.048;15.390;2023-04-21T00:45:51;1.27;;;0.93;;
12758;SDS011;20944;47.048;15.390;2023-04-21T00:48:19;3.10;;;1.30;;
12758;SDS011;20944;47.048;15.390;2023-04-21T00:50:48;2.67;;;1.20;;
12758;SDS011;20944;47.048;15.390;2023-04-21T00:53:17;2.20;;;1.40;;
12758;SDS011;20944;47.048;15.390;2023-04-21T00:55:47;2.90;;;1.07;;
12758;SDS011;20944;47.048;15.390;2023-04-21T00:58:17;1.17;;;0.93;;
12758;SDS011;20944;47.048;15.390;2023-04-21T01:00:46;1.40;;;1.13;;
12758;SDS011;20944;47.048;15.390;2023-04-21T01:03:14;3.73;;;2.30;;
12758;SDS011;20944;47.048;15.390;2023-04-21T01:05:43;2.60;;;1.20;;
12758;SDS011;20944;47.048;15.390;2023-04-21T01:08:12;1.10;;;0.90;;
12758;SDS011;20944;47.048;15.390;2023-04-21T01:10:43;1.60;;;1.17;;
12758;SDS011;20944;47.048;15.390;2023-04-21T01:13:11;3.07;;;1.27;;
12758;SDS011;20944;47.048;15.390;2023-04-21T01:15:39;4.87;;;1.90;;
12758;SDS011;20944;47.048;15.390;2023-04-21T01:18:08;2.80;;;1.33;;
12758;SDS011;20944;47.048;15.390;2023-04-21T01:20:37;2.80;;;1.23;;
12758;SDS011;20944;47.048;15.390;2023-04-21T01:23:07;1.50;;;1.20;;
12758;SDS011;20944;47.048;15.390;2023-04-21T01:25:35;2.17;;;1.57;;
12758;SDS011;20944;47.048;15.390;2023-04-21T01:28:03;2.00;;;1.40;;
12758;SDS011;20944;47.048;15.390;2023-04-21T01:30:32;1.67;;;1.47;;
12758;SDS011;20944;47.048;15.390;2023-04-21T01:33:00;1.97;;;1.30;;
12758;SDS011;20944;47.048;15.390;2023-04-21T01:35:29;2.27;;;1.43;;
12758;SDS011;20944;47.048;15.390;2023-04-21T01:37:57;1.83;;;1.40;;
12758;SDS011;20944;47.048;15.390;2023-04-21T01:40:28;2.17;;;1.40;;
12758;SDS011;20944;47.048;15.390;2023-04-21T01:42:56;2.30;;;1.00;;
12758;SDS011;20944;47.048;15.390;2023-04-21T01:45:25;1.10;;;0.93;;
12758;SDS011;20944;47.048;15.390;2023-04-21T01:47:53;2.67;;;1.27;;
12758;SDS011;20944;47.048;15.390;2023-04-21T01:50:21;3.30;;;1.47;;
12758;SDS011;20944;47.048;15.390;2023-04-21T01:52:50;2.30;;;1.07;;
12758;SDS011;20944;47.048;15.390;2023-04-21T01:55:18;2.63;;;1.27;;
12758;SDS011;20944;47.048;15.390;2023-04-21T01:57:48;4.30;;;0.97;;
12758;SDS011;20944;47.048;15.390;2023-04-21T02:00:17;1.60;;;1.30;;
12758;SDS011;20944;47.048;15.390;2023-04-21T02:02:45;1.50;;;1.07;;
12758;SDS011;20944;47.048;15.390;2023-04-21T02:05:14;2.43;;;1.27;;
12758;SDS011;20944;47.048;15.390;2023-04-21T02:07:42;1.67;;;0.87;;
12758;SDS011;20944;47.048;15.390;2023-04-21T02:10:11;1.87;;;1.57;;
12758;SDS011;20944;47.048;15.390;2023-04-21T02:12:39;4.37;;;1.27;;
12758;SDS011;20944;47.048;15.390;2023-04-21T02:15:10;3.30;;;1.40;;
12758;SDS011;20944;47.048;15.390;2023-04-21T02:17:38;2.27;;;1.30;;
12758;SDS011;20944;47.048;15.390;2023-04-21T02:20:10;2.67;;;1.30;;
12758;SDS011;20944;47.048;15.390;2023-04-21T02:22:39;1.70;;;1.30;;
12758;SDS011;20944;47.048;15.390;2023-04-21T02:25:07;2.00;;;1.23;;
12758;SDS011;20944;47.048;15.390;2023-04-21T02:27:36;2.47;;;1.53;;
12758;SDS011;20944;47.048;15.390;2023-04-21T02:30:05;1.20;;;1.10;;
12758;SDS011;20944;47.048;15.390;2023-04-21T02:32:36;3.13;;;0.80;;
12758;SDS011;20944;47.048;15.390;2023-04-21T02:35:05;2.03;;;1.50;;
12758;SDS011;20944;47.048;15.390;2023-04-21T02:37:34;2.87;;;1.23;;
12758;SDS011;20944;47.048;15.390;2023-04-21T02:40:03;1.60;;;1.20;;
12758;SDS011;20944;47.048;15.390;2023-04-21T02:42:32;2.60;;;1.40;;
12758;SDS011;20944;47.048;15.390;2023-04-21T02:45:00;2.33;;;1.43;;
12758;SDS011;20944;47.048;15.390;2023-04-21T02:47:28;2.60;;;1.00;;
12758;SDS011;20944;47.048;15.390;2023-04-21T02:49:59;1.20;;;1.10;;
12758;SDS011;20944;47.048;15.390;2023-04-21T02:52:27;1.60;;;1.10;;
12758;SDS011;20944;47.048;15.390;2023-04-21T02:54:56;2.50;;;1.10;;
12758;SDS011;20944;47.048;15.390;2023-04-21T02:57:24;2.37;;;1.43;;
12758;SDS011;20944;47.048;15.390;2023-04-21T02:59:52;1.73;;;1.10;;
12758;SDS011;20944;47.048;15.390;2023-04-21T03:02:20;2.30;;;1.50;;
12758;SDS011;20944;47.048;15.390;2023-04-21T03:04:49;2.13;;;1.50;;
12758;SDS011;20944;47.048;15.390;2023-04-21T03:07:20;2.60;;;1.47;;
12758;SDS011;20944;47.048;15.390;2023-04-21T03:09:48;1.70;;;1.30;;
12758;SDS011;20944;47.048;15.390;2023-04-21T03:12:16;1.57;;;1.07;;
12758;SDS011;20944;47.048;15.390;2023-04-21T03:14:45;1.77;;;1.17;;
12758;SDS011;20944;47.048;15.390;2023-04-21T03:17:13;1.60;;;1.20;;
12758;SDS011;20944;47.048;15.390;2023-04-21T03:19:41;1.40;;;1.20;;
12758;SDS011;20944;47.048;15.390;2023-04-21T03:22:10;2.30;;;1.33;;
12758;SDS011;20944;47.048;15.390;2023-04-21T03:24:39;2.23;;;1.33;;
12758;SDS011;20944;47.048;15.390;2023-04-21T03:27:08;3.87;;;2.03;;
12758;SDS011;20944;47.048;15.390;2023-04-21T03:29:36;2.20;;;1.30;;
12758;SDS011;20944;47.048;15.390;2023-04-21T03:32:05;3.23;;;1.53;;
12758;SDS011;20944;47.048;15.390;2023-04-21T03:34:33;1.93;;;1.20;;
12758;SDS011;20944;47.048;15.390;2023-04-21T03:37:02;2.23;;;1.10;;
12758;SDS011;20944;47.048;15.390;2023-04-21T03:39:30;1.97;;;1.37;;
12758;SDS011;20944;47.048;15.390;2023-04-21T03:42:00;1.80;;;1.03;;
12758;SDS011;20944;47.048;15.390;2023-04-21T03:44:28;2.67;;;1.30;;
12758;SDS011;20944;47.048;15.390;2023-04-21T03:46:56;1.33;;;1.07;;
12758;SDS011;20944;47.048;15.390;2023-04-21T03:49:25;1.73;;;1.03;;
12758;SDS011;20944;47.048;15.390;2023-04-21T03:51:53;2.30;;;1.30;;
12758;SDS011;20944;47.048;15.390;2023-04-21T03:54:21;1.93;;;1.50;;
12758;SDS011;20944;47.048;15.390;2023-04-21T03:56:50;1.13;;;1.07;;
12758;SDS011;20944;47.048;15.390;2023-04-21T03:59:19;1.70;;;1.13;;
12758;SDS011;20944;47.048;15.390;2023-04-21T04:01:48;2.03;;;1.00;;
12758;SDS011;20944;47.048;15.390;2023-04-21T04:04:16;3.20;;;1.40;;
12758;SDS011;20944;47.048;15.390;2023-04-21T04:06:46;1.50;;;1.07;;
12758;SDS011;20944;47.048;15.390;2023-04-21T04:09:14;1.57;;;1.27;;
12758;SDS011;20944;47.048;15.390;2023-04-21T04:11:42;2.00;;;1.33;;
12758;SDS011;20944;47.048;15.390;2023-04-21T04:14:11;1.50;;;1.13;;
12758;SDS011;20944;47.048;15.390;2023-04-21T04:16:41;4.47;;;2.10;;
12758;SDS011;20944;47.048;15.390;2023-04-21T04:19:09;4.10;;;1.40;;
12758;SDS011;20944;47.048;15.390;2023-04-21T04:21:38;2.70;;;1.57;;
12758;SDS011;20944;47.048;15.390;2023-04-21T04:24:06;1.93;;;1.00;;
12758;SDS011;20944;47.048;15.390;2023-04-21T04:26:36;2.90;;;1.97;;
12758;SDS011;20944;47.048;15.390;2023-04-21T04:29:05;2.20;;;1.70;;
12758;SDS011;20944;47.048;15.390;2023-04-21T04:31:36;2.03;;;1.27;;
12758;SDS011;20944;47.048;15.390;2023-04-21T04:34:06;2.83;;;1.70;;
12758;SDS011;20944;47.048;15.390;2023-04-21T04:36:35;1.70;;;1.40;;
12758;SDS011;20944;47.048;15.390;2023-04-21T04:39:03;2.53;;;1.60;;
12758;SDS011;20944;47.048;15.390;2023-04-21T04:41:34;2.43;;;1.50;;
12758;SDS011;20944;47.048;15.390;2023-04-21T04:44:02;1.63;;;1.17;;
12758;SDS011;20944;47.048;15.390;2023-04-21T04:46:31;1.60;;;1.10;;
12758;SDS011;20944;47.048;15.390;2023-04-21T04:49:00;1.93;;;1.40;;
12758;SDS011;20944;47.048;15.390;2023-04-21T04:51:30;3.07;;;1.70;;
12758;SDS011;20944;47.048;15.390;2023-04-21T04:53:59;6.17;;;1.47;;
12758;SDS011;20944;47.048;15.390;2023-04-21T04:56:29;2.03;;;1.20;;
12758;SDS011;20944;47.048;15.390;2023-04-21T04:58:57;2.33;;;1.37;;
12758;SDS011;20944;47.048;15.390;2023-04-21T05:01:26;12.33;;;1.37;;
12758;SDS011;20944;47.048;15.390;2023-04-21T05:03:56;2.50;;;1.37;;
12758;SDS011;20944;47.048;15.390;2023-04-21T05:06:25;3.10;;;1.57;;
12758;SDS011;20944;47.048;15.390;2023-04-21T05:08:55;1.90;;;1.20;;
12758;SDS011;20944;47.048;15.390;2023-04-21T05:11:23;1.77;;;1.63;;
12758;SDS011;20944;47.048;15.390;2023-04-21T05:13:52;2.67;;;1.67;;
12758;SDS011;20944;47.048;15.390;2023-04-21T05:16:20;2.93;;;1.67;;
12758;SDS011;20944;47.048;15.390;2023-04-21T05:18:48;2.47;;;1.67;;
12758;SDS011;20944;47.048;15.390;2023-04-21T05:21:23;4.33;;;1.73;;
12758;SDS011;20944;47.048;15.390;2023-04-21T05:23:54;2.57;;;1.67;;
12758;SDS011;20944;47.048;15.390;2023-04-21T05:26:24;5.77;;;1.43;;
12758;SDS011;20944;47.048;15.390;2023-04-21T05:28:54;2.70;;;1.60;;
12758;SDS011;20944;47.048;15.390;2023-04-21T05:31:23;2.13;;;1.43;;
12758;SDS011;20944;47.048;15.390;2023-04-21T05:33:52;3.00;;;1.50;;
12758;SDS011;20944;47.048;15.390;2023-04-21T05:36:20;5.83;;;1.83;;
12758;SDS011;20944;47.048;15.390;2023-04-21T05:38:50;10.47;;;1.77;;
12758;SDS011;20944;47.048;15.390;2023-04-21T05:41:22;3.33;;;1.53;;
12758;SDS011;20944;47.048;15.390;2023-04-21T05:43:50;2.37;;;1.67;;
12758;SDS011;20944;47.048;15.390;2023-04-21T05:46:18;3.63;;;1.57;;
12758;SDS011;20944;47.048;15.390;2023-04-21T05:48:47;3.53;;;1.90;;
12758;SDS011;20944;47.048;15.390;2023-04-21T05:51:15;4.20;;;1.57;;
12758;SDS011;20944;47.048;15.390;2023-04-21T05:53:43;3.83;;;1.70;;
12758;SDS011;20944;47.048;15.390;2023-04-21T05:56:12;3.10;;;1.60;;
12758;SDS011;20944;47.048;15.390;2023-04-21T05:58:42;3.50;;;1.83;;
12758;SDS011;20944;47.048;15.390;2023-04-21T06:01:11;2.70;;;1.23;;
12758;SDS011;20944;47.048;15.390;2023-04-21T06:03:41;3.33;;;1.40;;
12758;SDS011;20944;47.048;15.390;2023-04-21T06:06:09;3.43;;;1.37;;
12758;SDS011;20944;47.048;15.390;2023-04-21T06:08:38;1.50;;;1.07;;
12758;SDS011;20944;47.048;15.390;2023-04-21T06:11:07;1.23;;;0.83;;
12758;SDS011;20944;47.048;15.390;2023-04-21T06:13:35;1.37;;;1.10;;
12758;SDS011;20944;47.048;15.390;2023-04-21T06:16:07;1.43;;;0.80;;
12758;SDS011;20944;47.048;15.390;2023-04-21T06:18:36;1.77;;;1.10;;
12758;SDS011;20944;47.048;15.390;2023-04-21T06:21:05;2.33;;;1.60;;
12758;SDS011;20944;47.048;15.390;2023-04-21T06:23:38;2.33;;;1.50;;
12758;SDS011;20944;47.048;15.390;2023-04-21T06:26:07;2.17;;;1.10;;
12758;SDS011;20944;47.048;15.390;2023-04-21T06:28:35;1.53;;;1.07;;
12758;SDS011;20944;47.048;15.390;2023-04-21T06:31:04;1.53;;;1.17;;
12758;SDS011;20944;47.048;15.390;2023-04-21T06:33:36;1.00;;;0.63;;
12758;SDS011;20944;47.048;15.390;2023-04-21T06:36:05;1.30;;;0.97;;
12758;SDS011;20944;47.048;15.390;2023-04-21T06:38:34;1.80;;;1.70;;
12758;SDS011;20944;47.048;15.390;2023-04-21T06:41:05;1.83;;;1.00;;
12758;SDS011;20944;47.048;15.390;2023-04-21T06:43:34;1.53;;;0.90;;
12758;SDS011;20944;47.048;15.390;2023-04-21T06:46:04;2.20;;;1.37;;
12758;SDS011;20944;47.048;15.390;2023-04-21T06:48:32;1.30;;;1.10;;
12758;SDS011;20944;47.048;15.390;2023-04-21T06:51:02;1.43;;;1.20;;
12758;SDS011;20944;47.048;15.390;2023-04-21T06:53:31;1.53;;;1.03;;
12758;SDS011;20944;47.048;15.390;2023-04-21T06:55:59;1.40;;;1.10;;
12758;SDS011;20944;47.048;15.390;2023-04-21T06:58:28;1.23;;;0.90;;
12758;SDS011;20944;47.048;15.390;2023-04-21T07:00:56;1.67;;;0.93;;
12758;SDS011;20944;47.048;15.390;2023-04-21T07:03:24;1.13;;;1.03;;
12758;SDS011;20944;47.048;15.390;2023-04-21T07:05:53;0.90;;;0.90;;
12758;SDS011;20944;47.048;15.390;2023-04-21T07:08:23;0.93;;;0.93;;
12758;SDS011;20944;47.048;15.390;2023-04-21T07:10:52;1.53;;;1.10;;
12758;SDS011;20944;47.048;15.390;2023-04-21T07:13:20;1.80;;;1.17;;
12758;SDS011;20944;47.048;15.390;2023-04-21T07:15:48;1.53;;;0.90;;
12758;SDS011;20944;47.048;15.390;2023-04-21T07:18:17;2.17;;;1.20;;
12758;SDS011;20944;47.048;15.390;2023-04-21T07:20:45;2.30;;;1.37;;
12758;SDS011;20944;47.048;15.390;2023-04-21T07:23:15;1.97;;;1.23;;
12758;SDS011;20944;47.048;15.390;2023-04-21T07:25:44;2.23;;;1.10;;
12758;SDS011;20944;47.048;15.390;2023-04-21T07:28:13;1.80;;;1.33;;
12758;SDS011;20944;47.048;15.390;2023-04-21T07:30:41;1.87;;;1.00;;
12758;SDS011;20944;47.048;15.390;2023-04-21T07:33:10;1.53;;;1.10;;
12758;SDS011;20944;47.048;15.390;2023-04-21T07:35:38;1.83;;;1.10;;
12758;SDS011;20944;47.048;15.390;2023-04-21T07:38:07;1.23;;;1.00;;
12758;SDS011;20944;47.048;15.390;2023-04-21T07:40:35;1.80;;;1.20;;
12758;SDS011;20944;47.048;15.390;2023-04-21T07:43:05;2.27;;;0.73;;
12758;SDS011;20944;47.048;15.390;2023-04-21T07:45:34;1.23;;;1.10;;
12758;SDS011;20944;47.048;15.390;2023-04-21T07:48:02;1.30;;;1.20;;
12758;SDS011;20944;47.048;15.390;2023-04-21T07:50:32;1.93;;;1.03;;
12758;SDS011;20944;47.048;15.390;2023-04-21T07:53:02;1.83;;;1.30;;
12758;SDS011;20944;47.048;15.390;2023-04-21T07:55:30;1.23;;;1.10;;
12758;SDS011;20944;47.048;15.390;2023-04-21T07:57:59;1.97;;;1.40;;
12758;SDS011;20944;47.048;15.390;2023-04-21T08:00:29;2.50;;;1.80;;
12758;SDS011;20944;47.048;15.390;2023-04-21T08:02:58;2.43;;;1.60;;
12758;SDS011;20944;47.048;15.390;2023-04-21T08:05:27;3.23;;;1.57;;
12758;SDS011;20944;47.048;15.390;2023-04-21T08:08:01;2.17;;;1.37;;
12758;SDS011;20944;47.048;15.390;2023-04-21T08:10:29;3.13;;;1.87;;
12758;SDS011;20944;47.048;15.390;2023-04-21T08:12:58;3.20;;;1.30;;
12758;SDS011;20944;47.048;15.390;2023-04-21T08:15:26;2.80;;;1.30;;
12758;SDS011;20944;47.048;15.390;2023-04-21T08:17:57;2.23;;;1.83;;
12758;SDS011;20944;47.048;15.390;2023-04-21T08:20:25;3.07;;;1.90;;
12758;SDS011;20944;47.048;15.390;2023-04-21T08:22:54;2.97;;;1.93;;
12758;SDS011;20944;47.048;15.390;2023-04-21T08:25:22;3.63;;;1.83;;
12758;SDS011;20944;47.048;15.390;2023-04-21T08:27:50;3.87;;;2.30;;
12758;SDS011;20944;47.048;15.390;2023-04-21T08:30:19;2.97;;;1.77;;
12758;SDS011;20944;47.048;15.390;2023-04-21T08:32:48;4.87;;;2.73;;
12758;SDS011;20944;47.048;15.390;2023-04-21T08:35:18;3.23;;;1.57;;
12758;SDS011;20944;47.048;15.390;2023-04-21T08:37:46;4.23;;;2.50;;
12758;SDS011;20944;47.048;15.390;2023-04-21T08:40:17;2.70;;;2.13;;
12758;SDS011;20944;47.048;15.390;2023-04-21T08:42:45;3.93;;;1.80;;
12758;SDS011;20944;47.048;15.390;2023-04-21T08:45:15;2.55;;;2.30;;
12758;SDS011;20944;47.048;15.390;2023-04-21T08:47:43;2.50;;;1.47;;
12758;SDS011;20944;47.048;15.390;2023-04-21T08:50:12;3.33;;;2.00;;
12758;SDS011;20944;47.048;15.390;2023-04-21T08:52:42;3.83;;;2.33;;
12758;SDS011;20944;47.048;15.390;2023-04-21T08:55:11;3.93;;;2.17;;
12758;SDS011;20944;47.048;15.390;2023-04-21T08:57:40;2.23;;;2.03;;
12758;SDS011;20944;47.048;15.390;2023-04-21T09:00:09;2.83;;;2.20;;
12758;SDS011;20944;47.048;15.390;2023-04-21T09:02:51;2.60;;;1.63;;
12758;SDS011;20944;47.048;15.390;2023-04-21T09:05:27;2.83;;;1.73;;
12758;SDS011;20944;47.048;15.390;2023-04-21T09:08:07;2.60;;;2.00;;
12758;SDS011;20944;47.048;15.390;2023-04-21T09:10:43;3.90;;;2.90;;
12758;SDS011;20944;47.048;15.390;2023-04-21T09:13:12;3.70;;;1.70;;
12758;SDS011;20944;47.048;15.390;2023-04-21T09:15:40;4.87;;;2.07;;
12758;SDS011;20944;47.048;15.390;2023-04-21T09:18:10;3.33;;;2.15;;
12758;SDS011;20944;47.048;15.390;2023-04-21T09:20:41;4.88;;;2.67;;
12758;SDS011;20944;47.048;15.390;2023-04-21T09:23:11;3.67;;;2.40;;
12758;SDS011;20944;47.048;15.390;2023-04-21T09:25:40;2.63;;;2.03;;
12758;SDS011;20944;47.048;15.390;2023-04-21T09:28:10;2.20;;;1.85;;
12758;SDS011;20944;47.048;15.390;2023-04-21T09:30:40;3.38;;;2.00;;
12758;SDS011;20944;47.048;15.390;2023-04-21T09:33:14;3.53;;;2.15;;
12758;SDS011;20944;47.048;15.390;2023-04-21T09:35:56;4.57;;;1.85;;
12758;SDS011;20944;47.048;15.390;2023-04-21T09:38:30;3.83;;;2.20;;
12758;SDS011;20944;47.048;15.390;2023-04-21T09:40:59;3.45;;;2.40;;
12758;SDS011;20944;47.048;15.390;2023-04-21T09:43:29;4.68;;;1.73;;
12758;SDS011;20944;47.048;15.390;2023-04-21T09:45:57;4.00;;;2.20;;
12758;SDS011;20944;47.048;15.390;2023-04-21T09:48:32;4.93;;;2.63;;
12758;SDS011;20944;47.048;15.390;2023-04-21T09:51:03;3.33;;;2.20;;
12758;SDS011;20944;47.048;15.390;2023-04-21T09:53:37;3.63;;;1.87;;
12758;SDS011;20944;47.048;15.390;2023-04-21T09:56:06;5.03;;;2.77;;
12758;SDS011;20944;47.048;15.390;2023-04-21T09:58:40;4.10;;;2.53;;
12758;SDS011;20944;47.048;15.390;2023-04-21T10:01:12;2.57;;;1.93;;
12758;SDS011;20944;47.048;15.390;2023-04-21T10:03:42;3.97;;;2.47;;
12758;SDS011;20944;47.048;15.390;2023-04-21T10:06:12;2.83;;;1.80;;
12758;SDS011;20944;47.048;15.390;2023-04-21T10:08:43;3.88;;;2.38;;
12758;SDS011;20944;47.048;15.390;2023-04-21T10:11:12;3.83;;;1.95;;
12758;SDS011;20944;47.048;15.390;2023-04-21T10:13:42;2.78;;;2.30;;
12758;SDS011;20944;47.048;15.390;2023-04-21T10:16:11;3.80;;;2.53;;
12758;SDS011;20944;47.048;15.390;2023-04-21T10:18:44;2.05;;;1.80;;
12758;SDS011;20944;47.048;15.390;2023-04-21T10:21:15;2.83;;;1.92;;
12758;SDS011;20944;47.048;15.390;2023-04-21T10:23:49;1.40;;;1.08;;
12758;SDS011;20944;47.048;15.390;2023-04-21T10:26:20;2.17;;;1.42;;
12758;SDS011;20944;47.048;15.390;2023-04-21T10:28:53;2.55;;;1.65;;
12758;SDS011;20944;47.048;15.390;2023-04-21T10:31:30;1.67;;;1.17;;
12758;SDS011;20944;47.048;15.390;2023-04-21T10:34:13;1.35;;;1.00;;
12758;SDS011;20944;47.048;15.390;2023-04-21T10:37:06;2.53;;;1.38;;
12758;SDS011;20944;47.048;15.390;2023-04-21T10:39:43;1.42;;;1.30;;
12758;SDS011;20944;47.048;15.390;2023-04-21T10:42:17;1.95;;;1.23;;
12758;SDS011;20944;47.048;15.390;2023-04-21T10:44:52;1.98;;;1.70;;
12758;SDS011;20944;47.048;15.390;2023-04-21T10:47:30;2.35;;;1.58;;
12758;SDS011;20944;47.048;15.390;2023-04-21T10:50:11;1.35;;;1.25;;
12758;SDS011;20944;47.048;15.390;2023-04-21T10:52:45;2.75;;;1.83;;
12758;SDS011;20944;47.048;15.390;2023-04-21T10:55:20;2.08;;;0.95;;
12758;SDS011;20944;47.048;15.390;2023-04-21T10:57:49;2.05;;;1.35;;
12758;SDS011;20944;47.048;15.390;2023-04-21T11:00:18;1.23;;;1.13;;
12758;SDS011;20944;47.048;15.390;2023-04-21T11:02:55;1.50;;;1.40;;
12758;SDS011;20944;47.048;15.390;2023-04-21T11:05:28;1.10;;;1.05;;
12758;SDS011;20944;47.048;15.390;2023-04-21T11:08:04;2.17;;;1.70;;
12758;SDS011;20944;47.048;15.390;2023-04-21T11:10:46;1.30;;;1.20;;
12758;SDS011;20944;47.048;15.390;2023-04-21T11:13:19;2.95;;;1.42;;
12758;SDS011;20944;47.048;15.390;2023-04-21T11:15:55;2.55;;;1.45;;
12758;SDS011;20944;47.048;15.390;2023-04-21T11:18:35;2.00;;;1.45;;
12758;SDS011;20944;47.048;15.390;2023-04-21T11:21:09;1.75;;;1.35;;
12758;SDS011;20944;47.048;15.390;2023-04-21T11:23:39;2.72;;;1.08;;
12758;SDS011;20944;47.048;15.390;2023-04-21T11:26:09;2.13;;;1.60;;
12758;SDS011;20944;47.048;15.390;2023-04-21T11:28:39;1.45;;;0.88;;
12758;SDS011;20944;47.048;15.390;2023-04-21T11:31:07;2.33;;;1.25;;
12758;SDS011;20944;47.048;15.390;2023-04-21T11:33:36;1.80;;;1.10;;
12758;SDS011;20944;47.048;15.390;2023-04-21T11:36:06;1.38;;;1.27;;
12758;SDS011;20944;47.048;15.390;2023-04-21T11:38:38;2.30;;;1.60;;
12758;SDS011;20944;47.048;15.390;2023-04-21T11:41:09;1.40;;;1.25;;
12758;SDS011;20944;47.048;15.390;2023-04-21T11:43:38;2.13;;;1.30;;
12758;SDS011;20944;47.048;15.390;2023-04-21T11:46:15;1.20;;;1.10;;
12758;SDS011;20944;47.048;15.390;2023-04-21T11:48:44;2.00;;;1.55;;
12758;SDS011;20944;47.048;15.390;2023-04-21T11:51:16;1.52;;;1.38;;
12758;SDS011;20944;47.048;15.390;2023-04-21T11:53:47;2.78;;;1.50;;
12758;SDS011;20944;47.048;15.390;2023-04-21T11:56:19;1.65;;;1.20;;
12758;SDS011;20944;47.048;15.390;2023-04-21T11:58:49;1.65;;;1.33;;
12758;SDS011;20944;47.048;15.390;2023-04-21T12:01:18;2.22;;;1.30;;
12758;SDS011;20944;47.048;15.390;2023-04-21T12:03:51;1.65;;;1.08;;
12758;SDS011;20944;47.048;15.390;2023-04-21T12:06:21;0.80;;;0.80;;
12758;SDS011;20944;47.048;15.390;2023-04-21T12:08:55;1.58;;;1.38;;
12758;SDS011;20944;47.048;15.390;2023-04-21T12:11:25;2.08;;;1.50;;
12758;SDS011;20944;47.048;15.390;2023-04-21T12:13:55;2.03;;;1.40;;
12758;SDS011;20944;47.048;15.390;2023-04-21T12:16:24;2.22;;;2.03;;
12758;SDS011;20944;47.048;15.390;2023-04-21T12:18:54;2.00;;;1.83;;
12758;SDS011;20944;47.048;15.390;2023-04-21T12:21:25;2.33;;;1.70;;
12758;SDS011;20944;47.048;15.390;2023-04-21T12:23:55;1.80;;;1.13;;
12758;SDS011;20944;47.048;15.390;2023-04-21T12:26:24;3.28;;;1.60;;
12758;SDS011;20944;47.048;15.390;2023-04-21T12:28:54;1.70;;;0.95;;
12758;SDS011;20944;47.048;15.390;2023-04-21T12:31:22;2.28;;;1.23;;
12758;SDS011;20944;47.048;15.390;2023-04-21T12:33:51;2.00;;;1.13;;
12758;SDS011;20944;47.048;15.390;2023-04-21T12:36:20;2.05;;;1.63;;
12758;SDS011;20944;47.048;15.390;2023-04-21T12:38:48;5.00;;;2.08;;
12758;SDS011;20944;47.048;15.390;2023-04-21T12:41:17;4.00;;;1.10;;
12758;SDS011;20944;47.048;15.390;2023-04-21T12:43:46;2.50;;;1.40;;
12758;SDS011;20944;47.048;15.390;2023-04-21T12:46:15;2.77;;;1.10;;
12758;SDS011;20944;47.048;15.390;2023-04-21T12:48:43;1.33;;;0.97;;
12758;SDS011;20944;47.048;15.390;2023-04-21T12:51:12;1.90;;;1.30;;
12758;SDS011;20944;47.048;15.390;2023-04-21T12:53:40;1.97;;;1.10;;
12758;SDS011;20944;47.048;15.390;2023-04-21T12:56:08;2.25;;;1.58;;
12758;SDS011;20944;47.048;15.390;2023-04-21T12:58:37;2.80;;;2.13;;
12758;SDS011;20944;47.048;15.390;2023-04-21T13:01:07;1.47;;;1.07;;
12758;SDS011;20944;47.048;15.390;2023-04-21T13:03:35;1.63;;;1.20;;
12758;SDS011;20944;47.048;15.390;2023-04-21T13:06:04;1.00;;;0.90;;
12758;SDS011;20944;47.048;15.390;2023-04-21T13:08:32;1.90;;;0.63;;
12758;SDS011;20944;47.048;15.390;2023-04-21T13:11:01;0.70;;;0.70;;
12758;SDS011;20944;47.048;15.390;2023-04-21T13:13:30;1.48;;;0.50;;
12758;SDS011;20944;47.048;15.390;2023-04-21T13:15:58;0.30;;;0.30;;
12758;SDS011;20944;47.048;15.390;2023-04-21T13:18:28;1.00;;;0.30;;
12758;SDS011;20944;47.048;15.390;2023-04-21T13:20:56;0.50;;;0.43;;
12758;SDS011;20944;47.048;15.390;2023-04-21T13:23:25;1.10;;;0.53;;
12758;SDS011;20944;47.048;15.390;2023-04-21T13:25:53;0.60;;;0.37;;
12758;SDS011;20944;47.048;15.390;2023-04-21T13:28:22;2.47;;;0.93;;
12758;SDS011;20944;47.048;15.390;2023-04-21T13:30:52;0.40;;;0.40;;
12758;SDS011;20944;47.048;15.390;2023-04-21T13:33:20;0.40;;;0.40;;
12758;SDS011;20944;47.048;15.390;2023-04-21T13:35:50;1.00;;;0.40;;
12758;SDS011;20944;47.048;15.390;2023-04-21T13:38:19;0.70;;;0.40;;
12758;SDS011;20944;47.048;15.390;2023-04-21T13:40:47;0.83;;;0.43;;
12758;SDS011;20944;47.048;15.390;2023-04-21T13:43:16;0.30;;;0.30;;
12758;SDS011;20944;47.048;15.390;2023-04-21T13:45:44;0.80;;;0.40;;
12758;SDS011;20944;47.048;15.390;2023-04-21T13:48:15;0.60;;;0.40;;
12758;SDS011;20944;47.048;15.390;2023-04-21T13:50:43;0.73;;;0.30;;
12758;SDS011;20944;47.048;15.390;2023-04-21T13:53:13;0.40;;;0.40;;
12758;SDS011;20944;47.048;15.390;2023-04-21T13:55:46;0.95;;;0.40;;
12758;SDS011;20944;47.048;15.390;2023-04-21T13:58:14;0.50;;;0.50;;
12758;SDS011;20944;47.048;15.390;2023-04-21T14:00:43;0.57;;;0.53;;
12758;SDS011;20944;47.048;15.390;2023-04-21T14:03:11;0.60;;;0.60;;
12758;SDS011;20944;47.048;15.390;2023-04-21T14:05:40;0.83;;;0.40;;
12758;SDS011;20944;47.048;15.390;2023-04-21T14:08:09;0.43;;;0.40;;
12758;SDS011;20944;47.048;15.390;2023-04-21T14:10:39;0.40;;;0.40;;
12758;SDS011;20944;47.048;15.390;2023-04-21T14:13:07;0.35;;;0.30;;
12758;SDS011;20944;47.048;15.390;2023-04-21T14:15:52;0.40;;;0.40;;
12758;SDS011;20944;47.048;15.390;2023-04-21T14:18:20;0.38;;;0.38;;
12758;SDS011;20944;47.048;15.390;2023-04-21T14:20:49;0.30;;;0.30;;
12758;SDS011;20944;47.048;15.390;2023-04-21T14:23:17;0.50;;;0.50;;
12758;SDS011;20944;47.048;15.390;2023-04-21T14:25:47;0.50;;;0.50;;
12758;SDS011;20944;47.048;15.390;2023-04-21T14:28:16;0.50;;;0.43;;
12758;SDS011;20944;47.048;15.390;2023-04-21T14:30:45;0.52;;;0.40;;
12758;SDS011;20944;47.048;15.390;2023-04-21T14:33:13;0.63;;;0.50;;
12758;SDS011;20944;47.048;15.390;2023-04-21T14:35:42;0.50;;;0.50;;
12758;SDS011;20944;47.048;15.390;2023-04-21T14:38:10;1.23;;;0.60;;
12758;SDS011;20944;47.048;15.390;2023-04-21T14:40:38;0.60;;;0.35;;
12758;SDS011;20944;47.048;15.390;2023-04-21T14:43:08;0.70;;;0.40;;
12758;SDS011;20944;47.048;15.390;2023-04-21T14:45:37;0.75;;;0.50;;
12758;SDS011;20944;47.048;15.390;2023-04-21T14:48:06;0.60;;;0.60;;